Time;durP1;ratioP1;P1;durP2;ratioP2;P2;SDS_P1;SDS_P2;PMS_P1;PMS_P2;Temp;Humidity;BMP_temperature;BMP_pressure;BME280_temperature;BME280_humidity;BME280_pressure;Samples;Min_cycle;Max_cycle;Signal;HPM_P1;HPM_P2
2023/04/13 00:00:09;;;;;;;6.32;4.22;;;14.40;79.50;;;;;;5064176;28;20027;-79
2023/04/13 00:02:38;;;;;;;7.43;4.88;;;14.30;79.50;;;;;;5044325;28;20029;-79
2023/04/13 00:05:08;;;;;;;4.28;3.55;;;14.30;79.20;;;;;;5062055;28;20032;-80
2023/04/13 00:07:37;;;;;;;5.40;3.88;;;14.30;79.10;;;;;;5062342;28;20021;-79
2023/04/13 00:10:05;;;;;;;5.20;3.88;;;14.40;80.10;;;;;;5052551;28;20020;-79
2023/04/13 00:12:32;;;;;;;5.55;4.32;;;14.40;79.70;;;;;;5064562;28;20033;-79
2023/04/13 00:14:58;;;;;;;7.80;4.00;;;14.40;80.40;;;;;;5072123;28;20470;-78
2023/04/13 00:17:25;;;;;;;5.20;4.18;;;14.50;81.10;;;;;;5070263;28;20037;-78
2023/04/13 00:19:56;;;;;;;5.63;4.22;;;14.40;81.80;;;;;;5063771;28;20020;-79
2023/04/13 00:22:22;;;;;;;5.03;3.45;;;14.50;81.50;;;;;;5057995;28;20040;-80
2023/04/13 00:24:48;;;;;;;4.95;3.45;;;14.40;81.20;;;;;;5068048;28;20035;-79
2023/04/13 00:27:14;;;;;;;5.60;3.58;;;14.40;81.10;;;;;;5067292;28;20029;-79
2023/04/13 00:29:40;;;;;;;3.72;3.10;;;14.40;81.50;;;;;;5062585;28;20064;-80
2023/04/13 00:32:06;;;;;;;4.35;3.67;;;14.40;81.90;;;;;;5067577;28;20025;-79
2023/04/13 00:34:31;;;;;;;6.28;4.20;;;14.40;82.30;;;;;;5057454;28;20383;-80
2023/04/13 00:36:57;;;;;;;5.45;4.25;;;14.40;82.30;;;;;;5067644;28;20105;-80
2023/04/13 00:39:24;;;;;;;5.18;3.90;;;14.30;81.80;;;;;;5065472;28;20028;-80
2023/04/13 00:41:50;;;;;;;5.25;4.00;;;14.30;81.80;;;;;;5066671;28;20067;-80
2023/04/13 00:44:18;;;;;;;5.85;4.00;;;14.30;82.10;;;;;;5063451;28;20025;-80
2023/04/13 00:46:47;;;;;;;4.93;3.80;;;14.20;82.40;;;;;;5064125;28;20090;-80
2023/04/13 00:49:14;;;;;;;4.93;4.00;;;14.30;83.00;;;;;;5061543;28;20408;-79
2023/04/13 00:51:43;;;;;;;4.85;4.05;;;14.20;82.80;;;;;;5069588;28;20374;-78
2023/04/13 00:54:13;;;;;;;4.95;3.83;;;14.20;82.90;;;;;;5060728;28;20021;-79
2023/04/13 00:56:41;;;;;;;3.92;3.25;;;14.20;83.40;;;;;;5064374;28;20489;-79
2023/04/13 00:59:09;;;;;;;4.85;4.25;;;14.20;83.00;;;;;;5066303;28;20021;-79
2023/04/13 01:01:44;;;;;;;4.93;3.50;;;14.20;83.50;;;;;;5063622;28;20462;-78
2023/04/13 01:04:13;;;;;;;4.40;3.35;;;14.10;82.80;;;;;;5056041;28;20108;-79
2023/04/13 01:06:44;;;;;;;3.95;3.40;;;14.10;82.70;;;;;;5060571;28;20028;-79
2023/04/13 01:09:17;;;;;;;6.28;3.30;;;14.10;82.80;;;;;;5062059;28;20021;-80
2023/04/13 01:11:52;;;;;;;5.25;4.03;;;14.10;82.50;;;;;;5068073;28;20051;-80
2023/04/13 01:14:47;;;;;;;5.80;3.65;;;14.00;82.80;;;;;;5056510;28;20047;-80
2023/04/13 01:17:20;;;;;;;5.57;3.80;;;13.90;82.70;;;;;;5058902;28;20122;-80
2023/04/13 01:19:57;;;;;;;5.18;3.60;;;13.90;83.20;;;;;;5063586;28;20086;-80
2023/04/13 01:22:35;;;;;;;5.40;4.13;;;13.90;83.40;;;;;;5064088;28;20036;-81
2023/04/13 01:25:22;;;;;;;4.95;3.70;;;13.80;83.90;;;;;;5061024;28;20029;-80
2023/04/13 01:27:50;;;;;;;5.03;3.85;;;13.90;84.00;;;;;;5061939;28;20116;-80
2023/04/13 01:30:26;;;;;;;6.53;4.50;;;13.80;84.10;;;;;;5058633;28;20051;-80
2023/04/13 01:32:52;;;;;;;5.93;4.68;;;13.80;84.50;;;;;;5062493;28;20039;-79
2023/04/13 01:35:22;;;;;;;6.07;4.32;;;13.80;84.70;;;;;;5058305;28;20115;-80
2023/04/13 01:37:51;;;;;;;5.63;4.55;;;13.70;85.00;;;;;;5057990;28;20047;-80
2023/04/13 01:40:21;;;;;;;8.40;5.63;;;13.60;85.10;;;;;;5042032;28;20025;-80
2023/04/13 01:42:47;;;;;;;5.32;4.40;;;13.60;85.20;;;;;;5061611;28;20548;-79
2023/04/13 01:45:22;;;;;;;7.22;4.93;;;13.60;84.90;;;;;;5052033;28;20025;-79
2023/04/13 01:48:03;;;;;;;8.95;5.10;;;13.70;85.40;;;;;;5039553;28;20051;-79
2023/04/13 01:50:34;;;;;;;7.45;4.82;;;13.70;85.30;;;;;;5064012;28;20035;-78
2023/04/13 01:53:10;;;;;;;7.25;5.88;;;13.70;85.40;;;;;;5062793;28;20025;-79
2023/04/13 01:55:38;;;;;;;10.07;4.78;;;13.70;86.20;;;;;;5061603;28;20045;-79
2023/04/13 01:58:05;;;;;;;5.70;4.65;;;13.70;85.70;;;;;;5062288;28;20029;-79
2023/04/13 02:00:35;;;;;;;6.45;4.97;;;13.70;85.70;;;;;;5063193;28;20020;-79
2023/04/13 02:03:05;;;;;;;6.90;5.35;;;13.70;85.80;;;;;;5062834;28;20028;-78
2023/04/13 02:05:32;;;;;;;6.63;4.88;;;13.70;85.90;;;;;;5063873;28;20033;-79
2023/04/13 02:07:58;;;;;;;6.20;5.28;;;13.70;86.40;;;;;;5064314;28;20115;-79
2023/04/13 02:10:25;;;;;;;7.93;5.38;;;13.70;86.20;;;;;;5044702;28;20136;-79
2023/04/13 02:12:52;;;;;;;8.60;5.47;;;13.60;86.30;;;;;;5062797;28;20366;-79
2023/04/13 02:15:17;;;;;;;7.70;5.43;;;13.60;86.10;;;;;;5061472;28;20042;-79
2023/04/13 02:17:43;;;;;;;6.53;5.22;;;13.60;86.20;;;;;;5058907;28;20455;-79
2023/04/13 02:20:10;;;;;;;8.30;6.35;;;13.50;86.40;;;;;;5059707;28;20025;-79
2023/04/13 02:22:38;;;;;;;10.40;5.60;;;13.60;86.90;;;;;;5057617;28;20040;-79
2023/04/13 02:25:05;;;;;;;6.88;5.00;;;13.60;86.50;;;;;;5061911;28;20024;-79
2023/04/13 02:27:33;;;;;;;6.28;4.90;;;13.60;86.50;;;;;;5059059;28;20025;-79
2023/04/13 02:29:59;;;;;;;9.05;5.55;;;13.60;86.50;;;;;;5062917;28;20120;-79
2023/04/13 02:32:24;;;;;;;7.43;5.30;;;13.70;86.40;;;;;;5064819;28;20100;-79
2023/04/13 02:34:52;;;;;;;6.47;5.22;;;13.70;86.40;;;;;;5063012;28;20028;-78
2023/04/13 02:37:19;;;;;;;6.00;4.97;;;13.70;86.30;;;;;;5050197;28;20470;-78
2023/04/13 02:39:45;;;;;;;10.05;6.32;;;13.60;86.90;;;;;;5063110;28;20040;-78
2023/04/13 02:42:11;;;;;;;7.82;6.10;;;13.70;87.20;;;;;;5065459;28;20021;-79
2023/04/13 02:44:37;;;;;;;8.57;6.00;;;13.60;86.40;;;;;;5066489;28;20024;-78
2023/04/13 02:47:03;;;;;;;7.88;6.00;;;13.70;86.60;;;;;;5050622;28;20547;-79
2023/04/13 02:49:29;;;;;;;6.57;5.30;;;13.60;86.60;;;;;;5061989;28;20025;-79
2023/04/13 02:51:55;;;;;;;8.77;6.82;;;13.70;86.60;;;;;;5065782;28;20438;-79
2023/04/13 02:54:20;;;;;;;8.95;6.40;;;13.70;86.50;;;;;;5062141;28;20133;-79
2023/04/13 02:56:46;;;;;;;8.00;5.80;;;13.60;86.40;;;;;;5066486;28;20028;-79
2023/04/13 02:59:13;;;;;;;9.48;5.90;;;13.60;86.40;;;;;;5058849;28;20040;-79
2023/04/13 03:01:40;;;;;;;9.93;6.38;;;13.60;86.50;;;;;;5061131;28;20063;-79
2023/04/13 03:04:07;;;;;;;7.30;5.43;;;13.70;86.50;;;;;;5038929;28;20017;-79
2023/04/13 03:06:32;;;;;;;9.02;6.00;;;13.60;86.50;;;;;;5067405;28;20035;-78
2023/04/13 03:08:58;;;;;;;7.53;6.55;;;13.60;86.60;;;;;;5050454;28;20025;-79
2023/04/13 03:11:25;;;;;;;8.73;6.13;;;13.70;86.80;;;;;;5064801;28;20395;-79
2023/04/13 03:13:52;;;;;;;9.95;6.47;;;13.70;87.20;;;;;;5064325;28;20040;-78
2023/04/13 03:16:19;;;;;;;8.43;6.72;;;13.60;87.20;;;;;;5064165;28;20031;-79
2023/04/13 03:18:44;;;;;;;8.02;6.68;;;13.60;87.30;;;;;;5062727;28;20114;-79
2023/04/13 03:21:11;;;;;;;9.27;7.18;;;13.60;87.40;;;;;;5067110;28;20473;-80
2023/04/13 03:23:37;;;;;;;9.90;6.72;;;13.70;87.50;;;;;;5048927;28;20033;-80
2023/04/13 03:26:03;;;;;;;9.90;7.50;;;13.70;87.50;;;;;;5062578;28;20032;-80
2023/04/13 03:28:29;;;;;;;12.38;7.53;;;13.70;87.30;;;;;;5067487;28;20027;-79
2023/04/13 03:30:55;;;;;;;8.15;6.90;;;13.70;87.50;;;;;;5063043;28;20522;-78
2023/04/13 03:33:20;;;;;;;9.68;7.28;;;13.70;87.50;;;;;;5067860;28;20082;-78
2023/04/13 03:35:46;;;;;;;8.40;6.63;;;13.70;87.70;;;;;;5067103;28;20469;-75
2023/04/13 03:38:12;;;;;;;9.43;6.93;;;13.70;87.80;;;;;;5063496;28;20131;-75
2023/04/13 03:40:38;;;;;;;11.60;7.78;;;13.70;87.80;;;;;;5061592;28;20037;-76
2023/04/13 03:43:03;;;;;;;9.68;7.15;;;13.70;87.80;;;;;;5064035;28;20020;-75
2023/04/13 03:45:29;;;;;;;10.15;7.60;;;13.70;87.60;;;;;;5062715;28;20043;-75
2023/04/13 03:47:55;;;;;;;9.35;7.55;;;13.70;87.70;;;;;;5065187;28;21796;-77
2023/04/13 03:50:20;;;;;;;9.45;7.93;;;13.60;88.20;;;;;;5060735;28;20915;-77
2023/04/13 03:52:46;;;;;;;10.20;6.97;;;13.70;87.90;;;;;;5068009;28;20037;-79
2023/04/13 03:55:12;;;;;;;7.95;6.60;;;13.70;88.20;;;;;;5068260;28;20469;-78
2023/04/13 03:57:41;;;;;;;8.40;6.97;;;13.60;88.20;;;;;;5059615;28;20104;-81
2023/04/13 04:00:12;;;;;;;9.32;6.88;;;13.60;88.10;;;;;;5063287;28;20073;-81
2023/04/13 04:02:38;;;;;;;9.02;6.90;;;13.60;88.40;;;;;;5066318;28;20073;-81
2023/04/13 04:05:04;;;;;;;7.90;6.72;;;13.60;88.40;;;;;;5053894;28;20130;-80
2023/04/13 04:07:30;;;;;;;9.52;7.32;;;13.60;88.40;;;;;;5049083;28;20037;-80
2023/04/13 04:09:56;;;;;;;7.90;6.47;;;13.60;88.50;;;;;;5064037;28;20189;-80
2023/04/13 04:12:22;;;;;;;9.93;7.47;;;13.60;88.80;;;;;;5064772;28;20052;-81
2023/04/13 04:14:47;;;;;;;7.40;6.43;;;13.60;88.90;;;;;;5054525;28;20036;-81
2023/04/13 04:17:13;;;;;;;9.10;6.97;;;13.60;88.70;;;;;;5055886;28;20044;-81
2023/04/13 04:19:39;;;;;;;7.55;5.93;;;13.60;88.80;;;;;;5059157;28;20036;-80
2023/04/13 04:22:05;;;;;;;8.30;6.05;;;13.60;89.00;;;;;;5060377;28;20736;-80
2023/04/13 04:24:32;;;;;;;10.40;7.00;;;13.60;89.10;;;;;;5066991;28;20040;-79
2023/04/13 04:26:59;;;;;;;9.13;6.68;;;13.60;89.20;;;;;;5065558;28;20060;-79
2023/04/13 04:29:33;;;;;;;8.70;6.95;;;13.60;89.40;;;;;;5063529;28;20079;-79
2023/04/13 04:32:00;;;;;;;8.95;7.18;;;13.60;89.80;;;;;;5046711;28;20036;-78
2023/04/13 04:34:37;;;;;;;7.82;6.60;;;13.60;89.80;;;;;;5060788;28;20031;-75
2023/04/13 04:37:06;;;;;;;10.20;6.75;;;13.60;89.90;;;;;;5052818;28;20036;-75
2023/04/13 04:39:34;;;;;;;8.48;6.47;;;13.90;89.90;;;;;;5067749;28;20033;-75
2023/04/13 04:42:02;;;;;;;8.13;6.68;;;13.60;89.80;;;;;;5065448;28;20028;-75
2023/04/13 04:44:30;;;;;;;9.55;7.00;;;13.60;90.00;;;;;;5061203;28;20036;-75
2023/04/13 04:46:58;;;;;;;7.38;6.28;;;13.60;90.00;;;;;;5058433;28;20407;-74
2023/04/13 04:49:26;;;;;;;8.68;7.03;;;13.50;90.00;;;;;;5049416;28;20065;-75
2023/04/13 04:51:54;;;;;;;8.43;6.38;;;13.60;90.20;;;;;;5067891;28;20115;-76
2023/04/13 04:54:20;;;;;;;8.80;6.65;;;13.50;90.10;;;;;;5048824;28;20024;-78
2023/04/13 04:56:49;;;;;;;8.77;7.10;;;13.50;90.20;;;;;;5065392;28;20043;-78
2023/04/13 04:59:16;;;;;;;7.72;6.72;;;13.50;90.30;;;;;;5063814;28;20494;-77
2023/04/13 05:01:42;;;;;;;10.45;6.45;;;13.50;90.30;;;;;;5052181;28;20037;-77
2023/04/13 05:04:08;;;;;;;7.20;6.07;;;13.50;90.30;;;;;;5063125;28;20013;-78
2023/04/13 05:06:34;;;;;;;8.05;6.03;;;13.50;90.40;;;;;;5063386;28;20136;-77
2023/04/13 05:09:01;;;;;;;8.10;6.60;;;13.50;90.40;;;;;;5059845;28;20466;-77
2023/04/13 05:11:31;;;;;;;8.05;6.22;;;13.60;90.50;;;;;;5059023;28;21653;-77
2023/04/13 05:13:57;;;;;;;6.10;5.50;;;13.60;90.50;;;;;;5065447;28;20025;-77
2023/04/13 05:16:23;;;;;;;8.05;6.57;;;13.60;90.40;;;;;;5067579;28;20020;-77
2023/04/13 05:18:50;;;;;;;9.40;6.40;;;13.60;90.50;;;;;;5058445;28;20036;-77
2023/04/13 05:21:16;;;;;;;7.78;5.90;;;13.60;90.60;;;;;;5051568;28;20044;-78
2023/04/13 05:23:42;;;;;;;10.13;6.47;;;13.60;90.60;;;;;;5052007;28;20028;-78
2023/04/13 05:26:10;;;;;;;8.60;6.25;;;13.50;90.60;;;;;;5046692;28;20441;-78
2023/04/13 05:28:53;;;;;;;9.65;6.15;;;13.50;90.60;;;;;;5058094;28;20553;-78
2023/04/13 05:31:19;;;;;;;7.18;5.57;;;13.50;90.70;;;;;;5060652;28;20467;-78
2023/04/13 05:33:45;;;;;;;7.07;5.60;;;13.50;90.70;;;;;;5063100;28;20020;-79
2023/04/13 05:36:11;;;;;;;7.65;5.90;;;13.50;90.70;;;;;;5037485;28;20028;-79
2023/04/13 05:38:36;;;;;;;10.07;6.00;;;13.50;90.80;;;;;;5065729;28;20017;-75
2023/04/13 05:41:02;;;;;;;7.28;5.95;;;13.50;91.00;;;;;;5057939;28;20028;-73
2023/04/13 05:43:29;;;;;;;6.57;5.28;;;13.50;91.00;;;;;;5060652;28;20049;-74
2023/04/13 05:45:55;;;;;;;7.45;6.10;;;13.60;91.10;;;;;;5066233;28;20032;-74
2023/04/13 05:48:20;;;;;;;7.90;6.32;;;13.60;91.10;;;;;;5043894;28;20032;-74
2023/04/13 05:50:46;;;;;;;8.13;6.22;;;13.60;91.10;;;;;;5060615;28;20040;-74
2023/04/13 05:53:12;;;;;;;9.10;5.93;;;13.50;91.10;;;;;;5063605;28;20032;-75
2023/04/13 05:55:41;;;;;;;6.65;5.57;;;13.50;91.10;;;;;;5062234;28;20037;-75
2023/04/13 05:58:07;;;;;;;6.20;5.53;;;13.50;91.10;;;;;;5060499;28;20017;-75
2023/04/13 06:00:33;;;;;;;8.45;6.32;;;13.50;91.20;;;;;;5065455;28;20021;-76
2023/04/13 06:03:00;;;;;;;7.45;5.53;;;13.50;91.20;;;;;;5066887;28;20020;-74
2023/04/13 06:05:26;;;;;;;7.82;5.63;;;13.40;91.30;;;;;;5068238;28;20397;-74
2023/04/13 06:07:52;;;;;;;6.88;5.78;;;13.40;91.40;;;;;;5061551;28;20445;-74
2023/04/13 06:10:18;;;;;;;7.85;5.97;;;13.40;91.40;;;;;;5065298;28;20474;-77
2023/04/13 06:12:47;;;;;;;10.55;6.25;;;13.30;91.40;;;;;;5068596;28;20078;-78
2023/04/13 06:15:13;;;;;;;8.52;5.88;;;13.30;91.40;;;;;;5061686;28;20029;-77
2023/04/13 06:17:39;;;;;;;8.50;5.85;;;13.30;91.60;;;;;;5065049;28;20119;-78
2023/04/13 06:20:06;;;;;;;9.02;6.45;;;13.20;91.60;;;;;;5061816;28;21541;-78
2023/04/13 06:22:32;;;;;;;7.82;6.20;;;13.20;91.70;;;;;;5065729;28;20029;-78
2023/04/13 06:24:58;;;;;;;8.60;6.35;;;13.30;91.70;;;;;;5066182;28;20082;-78
2023/04/13 06:27:23;;;;;;;7.15;5.65;;;13.30;91.80;;;;;;5062921;28;20029;-78
2023/04/13 06:29:50;;;;;;;7.57;6.15;;;13.30;91.80;;;;;;5069134;28;20430;-78
2023/04/13 06:32:15;;;;;;;8.50;6.20;;;13.40;91.80;;;;;;5057873;28;20079;-77
2023/04/13 06:34:43;;;;;;;8.05;6.07;;;13.30;92.20;;;;;;5060562;28;20449;-79
2023/04/13 06:37:09;;;;;;;10.63;7.07;;;13.30;91.90;;;;;;5046063;28;20025;-79
2023/04/13 06:39:36;;;;;;;7.32;5.95;;;13.40;91.80;;;;;;5061717;28;20052;-78
2023/04/13 06:42:03;;;;;;;9.70;6.88;;;13.30;91.90;;;;;;5060545;28;20025;-79
2023/04/13 06:44:28;;;;;;;8.93;6.63;;;13.40;91.90;;;;;;5053394;28;20501;-79
2023/04/13 06:46:55;;;;;;;8.30;6.28;;;13.40;91.90;;;;;;5072175;28;20016;-78
2023/04/13 06:49:21;;;;;;;8.30;6.68;;;13.40;91.90;;;;;;5071936;28;20032;-78
2023/04/13 06:51:46;;;;;;;9.48;6.53;;;13.50;91.90;;;;;;5061706;28;20020;-78
2023/04/13 06:54:13;;;;;;;7.82;6.30;;;13.50;91.90;;;;;;5065945;28;20470;-78
2023/04/13 06:56:38;;;;;;;7.57;5.82;;;13.60;91.90;;;;;;5074368;28;20026;-78
2023/04/13 06:59:04;;;;;;;8.88;6.57;;;13.60;91.90;;;;;;5063566;28;20379;-78
2023/04/13 07:01:30;;;;;;;8.48;5.97;;;13.60;92.00;;;;;;5066972;28;20028;-78
2023/04/13 07:03:57;;;;;;;8.40;6.72;;;13.60;91.90;;;;;;5069455;28;20035;-79
2023/04/13 07:06:23;;;;;;;9.80;6.75;;;13.60;91.90;;;;;;5068412;28;20024;-78
2023/04/13 07:08:49;;;;;;;10.68;7.32;;;13.60;91.90;;;;;;5074764;28;20078;-78
2023/04/13 07:11:15;;;;;;;8.35;6.35;;;13.60;92.00;;;;;;5071334;28;20033;-78
2023/04/13 07:13:41;;;;;;;8.00;6.38;;;13.60;91.90;;;;;;5055506;28;20078;-78
2023/04/13 07:16:16;;;;;;;8.63;6.75;;;13.60;91.90;;;;;;5075766;28;20371;-80
2023/04/13 07:18:42;;;;;;;7.60;6.32;;;13.60;92.20;;;;;;5059061;28;20509;-78
2023/04/13 07:21:07;;;;;;;8.65;6.22;;;13.60;92.10;;;;;;5066155;28;20041;-79
2023/04/13 07:23:33;;;;;;;7.50;6.47;;;13.70;92.10;;;;;;5075805;28;20033;-78
2023/04/13 07:26:00;;;;;;;8.82;6.25;;;13.70;92.00;;;;;;5075769;28;20029;-79
2023/04/13 07:28:26;;;;;;;7.85;5.93;;;13.70;92.10;;;;;;5075224;28;20021;-78
2023/04/13 07:30:51;;;;;;;8.00;6.38;;;13.70;92.00;;;;;;5075375;28;20047;-75
2023/04/13 07:33:17;;;;;;;7.78;6.85;;;13.80;92.10;;;;;;5075448;28;20145;-75
2023/04/13 07:35:43;;;;;;;9.00;6.43;;;13.80;92.10;;;;;;5064743;28;20040;-75
2023/04/13 07:38:09;;;;;;;9.55;6.28;;;13.90;92.10;;;;;;5070405;28;20434;-79
2023/04/13 07:40:35;;;;;;;7.88;6.57;;;13.90;92.10;;;;;;5054579;28;20040;-78
2023/04/13 07:43:01;;;;;;;10.32;6.60;;;13.90;92.10;;;;;;5055796;28;20017;-79
2023/04/13 07:45:30;;;;;;;10.35;6.82;;;14.00;92.10;;;;;;5064495;28;20033;-76
2023/04/13 07:47:56;;;;;;;8.68;5.95;;;14.00;92.10;;;;;;5055908;28;20121;-75
2023/04/13 07:50:22;;;;;;;10.98;6.70;;;14.00;92.00;;;;;;5064528;28;20052;-75
2023/04/13 07:52:48;;;;;;;8.27;6.35;;;14.00;91.90;;;;;;5042777;28;20040;-75
2023/04/13 07:55:14;;;;;;;8.05;6.70;;;14.00;91.90;;;;;;5065540;28;20653;-75
2023/04/13 07:57:40;;;;;;;9.88;6.50;;;14.00;91.90;;;;;;5059819;28;20040;-75
2023/04/13 08:00:07;;;;;;;9.43;7.22;;;14.00;91.90;;;;;;5061539;28;20041;-75
2023/04/13 08:02:32;;;;;;;7.97;6.13;;;14.00;91.90;;;;;;5059808;28;20033;-73
2023/04/13 08:04:58;;;;;;;7.75;6.05;;;14.00;92.10;;;;;;5042137;28;20037;-75
2023/04/13 08:07:25;;;;;;;8.85;6.38;;;14.00;92.00;;;;;;5060046;28;20029;-78
2023/04/13 08:09:51;;;;;;;11.30;7.45;;;14.00;92.00;;;;;;5058859;28;20032;-78
2023/04/13 08:12:18;;;;;;;8.00;6.63;;;13.90;92.10;;;;;;5055663;28;20087;-79
2023/04/13 08:14:44;;;;;;;7.15;6.15;;;14.00;92.00;;;;;;5063657;28;20029;-79
2023/04/13 08:17:10;;;;;;;9.50;7.30;;;14.00;92.10;;;;;;5061850;28;20036;-79
2023/04/13 08:19:36;;;;;;;9.57;7.00;;;14.00;92.30;;;;;;5067528;28;20549;-79
2023/04/13 08:22:03;;;;;;;9.88;6.95;;;14.00;92.30;;;;;;5062661;28;20078;-79
2023/04/13 08:24:29;;;;;;;10.13;6.57;;;13.90;92.40;;;;;;5066481;28;20020;-79
2023/04/13 08:26:57;;;;;;;7.30;6.30;;;14.00;92.40;;;;;;5071626;28;20467;-79
2023/04/13 08:29:23;;;;;;;10.23;7.70;;;14.00;92.40;;;;;;5046129;28;20470;-80
2023/04/13 08:31:50;;;;;;;10.27;7.03;;;14.10;92.40;;;;;;5059143;28;20024;-80
2023/04/13 08:34:17;;;;;;;10.68;7.72;;;14.00;92.40;;;;;;5063463;28;20355;-80
2023/04/13 08:36:44;;;;;;;11.95;6.95;;;14.10;92.40;;;;;;5052388;28;20021;-80
2023/04/13 08:39:11;;;;;;;8.88;6.68;;;14.00;92.30;;;;;;5042501;28;20406;-80
2023/04/13 08:41:37;;;;;;;7.43;5.97;;;14.10;92.40;;;;;;5063644;28;20021;-80
2023/04/13 08:44:07;;;;;;;7.65;5.68;;;14.10;92.50;;;;;;5048740;28;20098;-79
2023/04/13 08:46:33;;;;;;;10.23;6.68;;;14.10;92.50;;;;;;5059578;28;20098;-79
2023/04/13 08:49:02;;;;;;;9.45;6.88;;;14.20;92.60;;;;;;5065781;28;20479;-79
2023/04/13 08:51:33;;;;;;;7.47;6.03;;;14.30;92.50;;;;;;5059484;28;20037;-79
2023/04/13 08:53:58;;;;;;;11.10;6.65;;;14.30;92.50;;;;;;5052703;28;20546;-79
2023/04/13 08:56:26;;;;;;;8.50;7.05;;;14.30;92.50;;;;;;5054691;28;20104;-79
2023/04/13 08:58:58;;;;;;;8.02;6.60;;;14.40;92.50;;;;;;5069626;28;20555;-79
2023/04/13 09:01:25;;;;;;;9.50;7.25;;;14.30;92.50;;;;;;5057135;28;20016;-79
2023/04/13 09:04:10;;;;;;;9.73;6.85;;;14.40;92.60;;;;;;5064083;28;20040;-79
2023/04/13 09:06:39;;;;;;;8.55;6.68;;;14.40;92.70;;;;;;5066734;28;20044;-79
2023/04/13 09:09:12;;;;;;;8.85;6.60;;;14.40;92.70;;;;;;5066785;28;20043;-79
2023/04/13 09:11:38;;;;;;;9.52;6.90;;;14.40;92.70;;;;;;5039893;28;20086;-79
2023/04/13 09:14:03;;;;;;;10.57;6.78;;;14.50;92.80;;;;;;5068460;28;20390;-79
2023/04/13 09:16:36;;;;;;;9.20;7.15;;;14.50;92.80;;;;;;5061724;28;20039;-80
2023/04/13 09:19:03;;;;;;;8.65;6.65;;;14.60;92.70;;;;;;5059333;28;20032;-79
2023/04/13 09:21:41;;;;;;;9.02;7.05;;;14.50;92.70;;;;;;5066321;28;20020;-82
2023/04/13 09:24:08;;;;;;;7.78;6.95;;;14.60;92.70;;;;;;5034674;28;20029;-80
2023/04/13 09:26:48;;;;;;;9.35;7.00;;;14.60;92.80;;;;;;5058353;28;20081;-80
2023/04/13 09:29:18;;;;;;;8.85;7.00;;;14.60;92.80;;;;;;5065258;28;20027;-79
2023/04/13 09:31:45;;;;;;;8.98;6.72;;;14.60;92.80;;;;;;5063120;28;20040;-79
2023/04/13 09:34:11;;;;;;;8.10;7.03;;;14.60;92.80;;;;;;5065320;28;20120;-79
2023/04/13 09:36:38;;;;;;;7.90;6.90;;;14.60;92.90;;;;;;5061117;28;20029;-80
2023/04/13 09:39:04;;;;;;;7.25;6.35;;;14.60;92.80;;;;;;5058288;28;20362;-80
2023/04/13 09:41:33;;;;;;;8.30;7.22;;;14.60;92.80;;;;;;5061682;28;20067;-79
2023/04/13 09:44:01;;;;;;;8.23;6.93;;;14.60;92.80;;;;;;5060076;28;20101;-81
2023/04/13 09:46:26;;;;;;;9.68;7.68;;;14.60;92.80;;;;;;5054595;28;20028;-79
2023/04/13 09:49:02;;;;;;;11.50;8.10;;;14.60;92.80;;;;;;5059843;28;20035;-79
2023/04/13 09:51:38;;;;;;;8.65;6.95;;;14.60;93.00;;;;;;5072178;28;20025;-79
2023/04/13 09:54:05;;;;;;;9.30;7.22;;;14.50;93.00;;;;;;5070459;28;20020;-80
2023/04/13 09:56:51;;;;;;;9.70;7.72;;;14.50;93.10;;;;;;5043677;28;20017;-81
2023/04/13 09:59:18;;;;;;;8.98;7.45;;;14.60;93.20;;;;;;5052703;28;20112;-80
2023/04/13 10:01:44;;;;;;;8.52;6.82;;;14.60;93.20;;;;;;5049366;28;20429;-80
2023/04/13 10:04:11;;;;;;;9.10;7.90;;;14.60;93.20;;;;;;5064131;28;20037;-79
2023/04/13 10:06:39;;;;;;;9.50;7.93;;;14.60;93.30;;;;;;5060483;28;20408;-80
2023/04/13 10:09:04;;;;;;;8.77;7.50;;;14.60;93.20;;;;;;5057649;28;20040;-79
2023/04/13 10:11:37;;;;;;;9.88;7.55;;;14.70;93.30;;;;;;5057317;28;20028;-79
2023/04/13 10:14:10;;;;;;;9.18;7.70;;;14.60;93.40;;;;;;5046307;28;20041;-80
2023/04/13 10:17:04;;;;;;;8.10;7.13;;;14.60;93.30;;;;;;5061228;28;20067;-79
2023/04/13 10:19:39;;;;;;;8.63;7.72;;;14.70;93.40;;;;;;5065119;28;20035;-79
2023/04/13 10:22:06;;;;;;;9.43;6.95;;;14.70;93.40;;;;;;5062925;28;20116;-79
2023/04/13 10:24:32;;;;;;;9.38;7.10;;;14.70;93.50;;;;;;5066395;28;20024;-80
2023/04/13 10:27:00;;;;;;;9.18;7.53;;;14.70;93.60;;;;;;5071663;28;20331;-80
2023/04/13 10:29:31;;;;;;;8.65;7.20;;;14.80;93.60;;;;;;5065506;28;20074;-80
2023/04/13 10:32:04;;;;;;;9.68;7.38;;;14.80;93.60;;;;;;5067689;28;20025;-75
2023/04/13 10:34:33;;;;;;;9.25;8.02;;;15.00;93.70;;;;;;5051774;28;20082;-76
2023/04/13 10:37:02;;;;;;;9.25;7.65;;;15.20;94.00;;;;;;5049347;28;20502;-76
2023/04/13 10:39:31;;;;;;;9.27;7.18;;;15.40;93.90;;;;;;5070116;28;20075;-76
2023/04/13 10:42:05;;;;;;;7.13;6.43;;;15.70;93.70;;;;;;5044869;28;20033;-75
2023/04/13 10:44:48;;;;;;;8.07;6.75;;;15.90;93.40;;;;;;5045737;28;20029;-75
2023/04/13 10:47:17;;;;;;;11.30;7.03;;;16.00;93.10;;;;;;5061061;28;20061;-76
2023/04/13 10:49:45;;;;;;;8.45;7.00;;;16.10;92.80;;;;;;5047115;28;20028;-74
2023/04/13 10:52:11;;;;;;;8.60;7.53;;;16.20;92.80;;;;;;5043117;28;20039;-75
2023/04/13 10:54:39;;;;;;;7.10;6.40;;;16.20;92.40;;;;;;5050852;28;20025;-75
2023/04/13 10:57:07;;;;;;;6.43;5.32;;;16.20;92.40;;;;;;5068515;28;20028;-75
2023/04/13 10:59:43;;;;;;;7.03;5.53;;;16.30;92.30;;;;;;5045850;28;20029;-75
2023/04/13 11:02:11;;;;;;;6.30;5.53;;;16.30;92.10;;;;;;5068420;28;20075;-75
2023/04/13 11:04:39;;;;;;;6.85;5.75;;;16.30;92.10;;;;;;5068629;28;20026;-75
2023/04/13 11:07:06;;;;;;;6.15;5.55;;;16.20;92.10;;;;;;5071157;28;20099;-75
2023/04/13 11:09:32;;;;;;;6.38;5.28;;;16.20;92.10;;;;;;5052456;28;20028;-75
2023/04/13 11:11:58;;;;;;;8.43;5.80;;;16.20;92.10;;;;;;5041345;28;20086;-75
2023/04/13 11:14:24;;;;;;;6.40;5.05;;;16.20;92.10;;;;;;5062300;28;20074;-75
2023/04/13 11:16:50;;;;;;;5.07;4.55;;;16.20;92.10;;;;;;5065324;28;20049;-75
2023/04/13 11:19:15;;;;;;;4.53;3.83;;;16.10;92.10;;;;;;5070906;28;20115;-75
2023/04/13 11:21:43;;;;;;;5.45;4.05;;;16.10;92.20;;;;;;5069640;28;20365;-75
2023/04/13 11:24:09;;;;;;;4.20;2.72;;;16.10;92.10;;;;;;5070923;28;20029;-75
2023/04/13 11:26:39;;;;;;;3.00;2.70;;;16.00;92.10;;;;;;5066191;28;20036;-75
2023/04/13 11:29:15;;;;;;;2.40;1.70;;;16.00;92.10;;;;;;5069631;28;20021;-75
2023/04/13 11:31:41;;;;;;;3.80;1.65;;;15.90;92.00;;;;;;5058577;28;20064;-75
2023/04/13 11:34:11;;;;;;;1.90;1.10;;;16.00;92.00;;;;;;5069500;28;20056;-75
2023/04/13 11:36:38;;;;;;;;;;;16.00;91.70;;;;;;5069462;28;20028;-75
2023/04/13 11:39:07;;;;;;;1.92;0.80;;;16.00;91.50;;;;;;5069465;28;19939;-75
2023/04/13 11:41:38;;;;;;;1.60;0.80;;;16.10;91.50;;;;;;5068470;28;20078;-75
2023/04/13 11:44:04;;;;;;;2.00;0.80;;;16.20;91.10;;;;;;5067826;28;20442;-78
2023/04/13 11:46:30;;;;;;;1.52;0.70;;;16.20;90.80;;;;;;5071690;28;20037;-78
2023/04/13 11:48:57;;;;;;;4.40;1.38;;;16.20;90.60;;;;;;5063494;28;20029;-78
2023/04/13 11:51:24;;;;;;;1.17;0.65;;;16.20;90.10;;;;;;5065720;28;20036;-78
2023/04/13 11:53:50;;;;;;;1.25;0.88;;;16.20;90.10;;;;;;5068605;28;20062;-79
2023/04/13 11:56:17;;;;;;;1.02;0.70;;;16.20;90.20;;;;;;5052257;28;20025;-78
2023/04/13 11:58:42;;;;;;;5.75;0.68;;;16.10;90.10;;;;;;5070163;28;20029;-78
2023/04/13 12:01:09;;;;;;;0.40;0.38;;;16.10;90.00;;;;;;5071393;28;20084;-80
2023/04/13 12:03:35;;;;;;;1.58;0.88;;;16.10;90.00;;;;;;5050270;28;20039;-78
2023/04/13 12:06:01;;;;;;;0.40;0.40;;;16.00;89.70;;;;;;5072100;28;20016;-78
2023/04/13 12:08:28;;;;;;;0.50;0.40;;;16.00;89.40;;;;;;5066211;28;20043;-78
2023/04/13 12:11:00;;;;;;;1.90;0.65;;;16.00;89.30;;;;;;5071065;28;20024;-79
2023/04/13 12:13:26;;;;;;;1.00;0.50;;;15.90;89.20;;;;;;5065429;28;20040;-78
2023/04/13 12:15:52;;;;;;;0.57;0.40;;;15.80;89.30;;;;;;5064670;28;20033;-79
2023/04/13 12:18:20;;;;;;;0.50;0.47;;;15.80;89.00;;;;;;5062564;28;20463;-79
2023/04/13 12:20:47;;;;;;;0.38;0.30;;;15.80;88.90;;;;;;5068513;28;20024;-78
2023/04/13 12:23:23;;;;;;;0.25;0.25;;;15.70;88.50;;;;;;5042849;28;20517;-75
2023/04/13 12:26:07;;;;;;;0.57;0.50;;;15.70;88.40;;;;;;5067464;28;20128;-75
2023/04/13 12:28:34;;;;;;;5.57;0.70;;;15.50;88.10;;;;;;5058477;28;20029;-75
2023/04/13 12:31:11;;;;;;;0.80;0.45;;;15.40;88.30;;;;;;5060947;28;20036;-75
2023/04/13 12:33:38;;;;;;;1.10;0.60;;;15.40;88.60;;;;;;5059880;28;20059;-80
2023/04/13 12:36:10;;;;;;;0.38;0.30;;;15.30;88.30;;;;;;5048911;28;20025;-79
2023/04/13 12:38:36;;;;;;;0.50;0.40;;;15.30;88.40;;;;;;5064637;28;20035;-79
2023/04/13 12:41:02;;;;;;;0.70;0.50;;;15.20;88.20;;;;;;5067544;28;20031;-80
2023/04/13 12:43:28;;;;;;;0.40;0.40;;;15.20;88.20;;;;;;5063879;28;20032;-80
2023/04/13 12:45:54;;;;;;;0.82;0.60;;;15.20;88.00;;;;;;5055445;28;20086;-80
2023/04/13 12:48:24;;;;;;;0.40;0.30;;;15.30;88.30;;;;;;5062050;28;20039;-81